sensor_id;sensor_type;location;lat;lon;timestamp;pressure;altitude;pressure_sealevel;temperature;humidity
20009;BME280;10165;42.662;23.260;2023-07-31T00:01:40;93840.41;;;23.99;63.07
20009;BME280;10165;42.662;23.260;2023-07-31T00:04:06;93856.25;;;24.16;62.43
20009;BME280;10165;42.662;23.260;2023-07-31T00:06:33;93846.28;;;23.97;63.96
20009;BME280;10165;42.662;23.260;2023-07-31T00:09:00;93845.66;;;24.31;62.37
20009;BME280;10165;42.662;23.260;2023-07-31T00:11:27;93851.31;;;24.11;62.55
20009;BME280;10165;42.662;23.260;2023-07-31T00:13:54;93858.06;;;23.81;63.21
20009;BME280;10165;42.662;23.260;2023-07-31T00:16:21;93846.72;;;23.96;62.16
20009;BME280;10165;42.662;23.260;2023-07-31T00:18:47;93851.31;;;23.86;62.27
20009;BME280;10165;42.662;23.260;2023-07-31T00:21:14;93847.41;;;24.25;62.06
20009;BME280;10165;42.662;23.260;2023-07-31T00:23:41;93833.53;;;24.19;61.95
20009;BME280;10165;42.662;23.260;2023-07-31T00:26:07;93826.97;;;24.55;61.17
20009;BME280;10165;42.662;23.260;2023-07-31T00:28:34;93822.28;;;24.05;62.07
20009;BME280;10165;42.662;23.260;2023-07-31T00:31:01;93816.50;;;24.28;60.26
20009;BME280;10165;42.662;23.260;2023-07-31T00:33:31;93809.50;;;24.40;60.03
20009;BME280;10165;42.662;23.260;2023-07-31T00:35:58;93800.06;;;24.66;58.83
20009;BME280;10165;42.662;23.260;2023-07-31T00:38:24;93797.91;;;24.48;58.84
20009;BME280;10165;42.662;23.260;2023-07-31T00:40:51;93795.25;;;24.57;58.16
20009;BME280;10165;42.662;23.260;2023-07-31T00:43:18;93795.84;;;24.40;59.12
20009;BME280;10165;42.662;23.260;2023-07-31T00:45:45;93799.44;;;24.11;60.50
20009;BME280;10165;42.662;23.260;2023-07-31T00:48:12;93805.00;;;24.46;60.00
20009;BME280;10165;42.662;23.260;2023-07-31T00:50:39;93806.69;;;24.05;61.09
20009;BME280;10165;42.662;23.260;2023-07-31T00:53:05;93807.66;;;23.86;61.37
20009;BME280;10165;42.662;23.260;2023-07-31T00:55:32;93811.25;;;23.83;62.10
20009;BME280;10165;42.662;23.260;2023-07-31T00:57:59;93807.03;;;24.20;61.63
20009;BME280;10165;42.662;23.260;2023-07-31T01:00:26;93794.56;;;24.32;60.09
20009;BME280;10165;42.662;23.260;2023-07-31T01:02:53;93803.09;;;24.21;60.25
20009;BME280;10165;42.662;23.260;2023-07-31T01:05:28;93805.06;;;24.20;61.21
20009;BME280;10165;42.662;23.260;2023-07-31T01:08:10;93800.47;;;24.30;60.62
20009;BME280;10165;42.662;23.260;2023-07-31T01:10:50;93804.47;;;24.00;61.63
20009;BME280;10165;42.662;23.260;2023-07-31T01:13:21;93797.94;;;24.36;60.59
20009;BME280;10165;42.662;23.260;2023-07-31T01:15:48;93794.53;;;24.57;59.66
20009;BME280;10165;42.662;23.260;2023-07-31T01:18:14;93792.81;;;24.00;61.47
20009;BME280;10165;42.662;23.260;2023-07-31T01:20:42;93788.75;;;24.04;62.03
20009;BME280;10165;42.662;23.260;2023-07-31T01:26:28;93793.69;;;24.09;61.83
20009;BME280;10165;42.662;23.260;2023-07-31T01:29:10;93794.38;;;24.26;61.30
20009;BME280;10165;42.662;23.260;2023-07-31T01:31:39;93792.16;;;24.08;61.84
20009;BME280;10165;42.662;23.260;2023-07-31T01:34:08;93787.78;;;24.23;61.90
20009;BME280;10165;42.662;23.260;2023-07-31T01:36:36;93791.59;;;24.01;62.31
20009;BME280;10165;42.662;23.260;2023-07-31T01:39:03;93786.38;;;23.94;63.37
20009;BME280;10165;42.662;23.260;2023-07-31T01:41:30;93790.84;;;23.75;63.54
20009;BME280;10165;42.662;23.260;2023-07-31T01:43:57;93789.09;;;24.06;63.11
20009;BME280;10165;42.662;23.260;2023-07-31T01:46:24;93779.72;;;24.33;62.02
20009;BME280;10165;42.662;23.260;2023-07-31T01:48:51;93770.75;;;24.32;61.66
20009;BME280;10165;42.662;23.260;2023-07-31T01:51:17;93781.50;;;24.14;61.96
20009;BME280;10165;42.662;23.260;2023-07-31T01:53:44;93788.56;;;23.61;64.36
20009;BME280;10165;42.662;23.260;2023-07-31T01:56:11;93787.22;;;23.53;65.47
20009;BME280;10165;42.662;23.260;2023-07-31T01:58:38;93787.81;;;23.31;65.94
20009;BME280;10165;42.662;23.260;2023-07-31T02:01:04;93788.00;;;23.24;65.96
20009;BME280;10165;42.662;23.260;2023-07-31T02:03:31;93790.78;;;23.37;66.04
20009;BME280;10165;42.662;23.260;2023-07-31T02:05:58;93788.69;;;23.28;66.20
20009;BME280;10165;42.662;23.260;2023-07-31T02:08:25;93799.91;;;23.72;64.40
20009;BME280;10165;42.662;23.260;2023-07-31T02:10:52;93789.84;;;23.69;64.09
20009;BME280;10165;42.662;23.260;2023-07-31T02:13:18;93796.94;;;23.66;65.07
20009;BME280;10165;42.662;23.260;2023-07-31T02:15:45;93796.50;;;23.55;64.96
20009;BME280;10165;42.662;23.260;2023-07-31T02:18:12;93795.72;;;23.13;66.57
20009;BME280;10165;42.662;23.260;2023-07-31T02:20:39;93793.25;;;23.19;66.57
20009;BME280;10165;42.662;23.260;2023-07-31T02:23:05;93796.22;;;23.37;66.27
20009;BME280;10165;42.662;23.260;2023-07-31T02:25:32;93797.19;;;23.72;65.19
20009;BME280;10165;42.662;23.260;2023-07-31T02:27:59;93799.59;;;23.95;64.39
20009;BME280;10165;42.662;23.260;2023-07-31T02:30:25;93798.59;;;23.64;65.44
20009;BME280;10165;42.662;23.260;2023-07-31T02:32:52;93801.88;;;23.97;63.98
20009;BME280;10165;42.662;23.260;2023-07-31T02:35:19;93792.50;;;24.10;63.51
20009;BME280;10165;42.662;23.260;2023-07-31T02:37:45;93796.91;;;24.55;61.53
20009;BME280;10165;42.662;23.260;2023-07-31T02:40:12;93794.25;;;24.30;61.89
20009;BME280;10165;42.662;23.260;2023-07-31T02:42:39;93795.91;;;24.14;62.17
20009;BME280;10165;42.662;23.260;2023-07-31T02:45:06;93802.88;;;24.28;61.59
20009;BME280;10165;42.662;23.260;2023-07-31T02:47:33;93802.63;;;24.35;61.61
20009;BME280;10165;42.662;23.260;2023-07-31T02:50:04;93809.63;;;24.23;61.94
20009;BME280;10165;42.662;23.260;2023-07-31T02:52:31;93809.06;;;23.78;63.29
20009;BME280;10165;42.662;23.260;2023-07-31T02:54:58;93814.00;;;23.83;63.31
20009;BME280;10165;42.662;23.260;2023-07-31T02:57:25;93815.00;;;24.14;62.60
20009;BME280;10165;42.662;23.260;2023-07-31T02:59:51;93812.94;;;24.18;62.45
20009;BME280;10165;42.662;23.260;2023-07-31T03:02:18;93815.75;;;24.15;62.46
20009;BME280;10165;42.662;23.260;2023-07-31T03:04:45;93817.81;;;23.98;62.88
20009;BME280;10165;42.662;23.260;2023-07-31T03:07:12;93819.75;;;23.85;63.38
20009;BME280;10165;42.662;23.260;2023-07-31T03:09:38;93821.59;;;23.88;63.19
20009;BME280;10165;42.662;23.260;2023-07-31T03:12:06;93823.28;;;23.98;63.54
20009;BME280;10165;42.662;23.260;2023-07-31T03:14:32;93821.41;;;24.08;62.41
20009;BME280;10165;42.662;23.260;2023-07-31T03:16:59;93824.34;;;24.13;62.28
20009;BME280;10165;42.662;23.260;2023-07-31T03:19:26;93829.59;;;23.95;62.57
20009;BME280;10165;42.662;23.260;2023-07-31T03:21:53;93835.38;;;24.10;63.02
20009;BME280;10165;42.662;23.260;2023-07-31T03:24:20;93831.47;;;24.11;62.78
20009;BME280;10165;42.662;23.260;2023-07-31T03:26:47;93835.72;;;24.37;61.94
20009;BME280;10165;42.662;23.260;2023-07-31T03:29:14;93835.09;;;24.20;62.19
20009;BME280;10165;42.662;23.260;2023-07-31T03:31:40;93838.78;;;24.26;61.78
20009;BME280;10165;42.662;23.260;2023-07-31T03:34:07;93844.47;;;24.32;61.72
20009;BME280;10165;42.662;23.260;2023-07-31T03:36:34;93844.34;;;24.10;61.91
20009;BME280;10165;42.662;23.260;2023-07-31T03:39:01;93843.03;;;24.15;61.78
20009;BME280;10165;42.662;23.260;2023-07-31T03:41:28;93851.88;;;24.32;61.38
20009;BME280;10165;42.662;23.260;2023-07-31T03:43:54;93849.47;;;24.08;61.90
20009;BME280;10165;42.662;23.260;2023-07-31T03:46:24;93847.69;;;23.89;63.05
20009;BME280;10165;42.662;23.260;2023-07-31T03:48:51;93851.97;;;23.90;62.84
20009;BME280;10165;42.662;23.260;2023-07-31T03:51:18;93853.41;;;23.95;62.39
20009;BME280;10165;42.662;23.260;2023-07-31T03:53:45;93857.34;;;24.19;61.47
20009;BME280;10165;42.662;23.260;2023-07-31T03:56:12;93861.19;;;24.21;62.01
20009;BME280;10165;42.662;23.260;2023-07-31T03:58:38;93859.41;;;24.27;61.21
20009;BME280;10165;42.662;23.260;2023-07-31T04:01:05;93858.16;;;23.78;63.22
20009;BME280;10165;42.662;23.260;2023-07-31T04:03:32;93861.56;;;23.82;63.26
20009;BME280;10165;42.662;23.260;2023-07-31T04:05:59;93863.56;;;24.07;62.07
20009;BME280;10165;42.662;23.260;2023-07-31T04:08:25;93866.72;;;24.05;61.71
20009;BME280;10165;42.662;23.260;2023-07-31T04:10:52;93860.84;;;24.32;61.16
20009;BME280;10165;42.662;23.260;2023-07-31T04:13:19;93866.72;;;24.05;61.60
20009;BME280;10165;42.662;23.260;2023-07-31T04:15:49;93863.25;;;24.17;61.60
20009;BME280;10165;42.662;23.260;2023-07-31T04:18:17;93870.13;;;24.22;60.86
20009;BME280;10165;42.662;23.260;2023-07-31T04:20:44;93865.66;;;24.15;61.01
20009;BME280;10165;42.662;23.260;2023-07-31T04:23:11;93876.91;;;24.30;60.45
20009;BME280;10165;42.662;23.260;2023-07-31T04:25:38;93875.69;;;24.44;60.08
20009;BME280;10165;42.662;23.260;2023-07-31T04:28:04;93883.22;;;24.40;60.00
20009;BME280;10165;42.662;23.260;2023-07-31T04:30:31;93877.47;;;24.38;59.89
20009;BME280;10165;42.662;23.260;2023-07-31T04:32:58;93878.75;;;24.20;60.57
20009;BME280;10165;42.662;23.260;2023-07-31T04:35:25;93878.28;;;24.09;61.20
20009;BME280;10165;42.662;23.260;2023-07-31T04:37:52;93876.28;;;23.72;62.09
20009;BME280;10165;42.662;23.260;2023-07-31T04:40:18;93880.13;;;23.87;61.14
20009;BME280;10165;42.662;23.260;2023-07-31T04:42:45;93869.81;;;23.66;62.29
20009;BME280;10165;42.662;23.260;2023-07-31T04:45:13;93873.41;;;24.17;60.58
20009;BME280;10165;42.662;23.260;2023-07-31T04:47:40;93863.44;;;24.10;60.57
20009;BME280;10165;42.662;23.260;2023-07-31T04:50:07;93866.06;;;24.26;60.07
20009;BME280;10165;42.662;23.260;2023-07-31T04:52:34;93864.94;;;24.11;60.57
20009;BME280;10165;42.662;23.260;2023-07-31T04:55:01;93867.41;;;24.22;60.46
20009;BME280;10165;42.662;23.260;2023-07-31T04:57:29;93866.53;;;24.25;59.80
20009;BME280;10165;42.662;23.260;2023-07-31T04:59:55;93860.31;;;24.24;60.02
20009;BME280;10165;42.662;23.260;2023-07-31T05:02:22;93860.47;;;24.05;60.87
20009;BME280;10165;42.662;23.260;2023-07-31T05:04:49;93856.78;;;23.99;61.74
20009;BME280;10165;42.662;23.260;2023-07-31T05:07:16;93880.63;;;23.41;62.64
20009;BME280;10165;42.662;23.260;2023-07-31T05:09:43;93868.41;;;23.74;62.05
20009;BME280;10165;42.662;23.260;2023-07-31T05:12:10;93867.03;;;23.95;61.41
20009;BME280;10165;42.662;23.260;2023-07-31T05:14:37;93863.09;;;24.08;60.14
20009;BME280;10165;42.662;23.260;2023-07-31T05:17:04;93865.97;;;24.17;59.77
20009;BME280;10165;42.662;23.260;2023-07-31T05:19:30;93862.78;;;23.94;60.48
20009;BME280;10165;42.662;23.260;2023-07-31T05:21:57;93867.94;;;23.63;60.86
20009;BME280;10165;42.662;23.260;2023-07-31T05:24:24;93870.31;;;23.48;62.08
20009;BME280;10165;42.662;23.260;2023-07-31T05:26:50;93865.06;;;23.95;60.46
20009;BME280;10165;42.662;23.260;2023-07-31T05:29:17;93875.25;;;24.20;59.54
20009;BME280;10165;42.662;23.260;2023-07-31T05:31:44;93865.53;;;24.06;60.42
20009;BME280;10165;42.662;23.260;2023-07-31T05:34:11;93875.78;;;24.02;60.35
20009;BME280;10165;42.662;23.260;2023-07-31T05:36:37;93865.19;;;24.04;60.50
20009;BME280;10165;42.662;23.260;2023-07-31T05:39:05;93872.75;;;24.25;59.08
20009;BME280;10165;42.662;23.260;2023-07-31T05:41:35;93873.16;;;23.57;60.35
20009;BME280;10165;42.662;23.260;2023-07-31T05:44:02;93870.06;;;23.97;59.38
20009;BME280;10165;42.662;23.260;2023-07-31T05:46:29;93858.88;;;24.33;58.46
20009;BME280;10165;42.662;23.260;2023-07-31T05:48:58;93861.06;;;24.25;58.36
20009;BME280;10165;42.662;23.260;2023-07-31T05:51:27;93857.97;;;24.61;57.91
20009;BME280;10165;42.662;23.260;2023-07-31T05:53:54;93852.69;;;24.79;56.95
20009;BME280;10165;42.662;23.260;2023-07-31T05:56:21;93864.44;;;24.54;56.79
20009;BME280;10165;42.662;23.260;2023-07-31T05:58:48;93878.84;;;24.42;56.54
20009;BME280;10165;42.662;23.260;2023-07-31T06:01:16;93879.38;;;24.50;55.46
20009;BME280;10165;42.662;23.260;2023-07-31T06:03:43;93882.03;;;24.15;55.60
20009;BME280;10165;42.662;23.260;2023-07-31T06:06:11;93878.75;;;24.20;55.05
20009;BME280;10165;42.662;23.260;2023-07-31T06:08:37;93872.94;;;24.06;56.05
20009;BME280;10165;42.662;23.260;2023-07-31T06:11:04;93882.47;;;24.52;54.90
20009;BME280;10165;42.662;23.260;2023-07-31T06:13:32;93881.25;;;24.27;54.74
20009;BME280;10165;42.662;23.260;2023-07-31T06:15:58;93894.47;;;24.42;54.53
20009;BME280;10165;42.662;23.260;2023-07-31T06:18:27;93892.50;;;24.55;53.47
20009;BME280;10165;42.662;23.260;2023-07-31T06:20:54;93891.97;;;24.47;53.64
20009;BME280;10165;42.662;23.260;2023-07-31T06:23:21;93884.66;;;24.57;52.62
20009;BME280;10165;42.662;23.260;2023-07-31T06:25:48;93887.66;;;25.31;51.89
20009;BME280;10165;42.662;23.260;2023-07-31T06:28:14;93893.34;;;25.02;51.69
20009;BME280;10165;42.662;23.260;2023-07-31T06:30:41;93886.13;;;24.83;52.07
20009;BME280;10165;42.662;23.260;2023-07-31T06:33:08;93884.16;;;25.31;51.01
20009;BME280;10165;42.662;23.260;2023-07-31T06:35:35;93884.25;;;24.80;52.60
20009;BME280;10165;42.662;23.260;2023-07-31T06:38:02;93895.16;;;25.18;51.91
20009;BME280;10165;42.662;23.260;2023-07-31T06:40:29;93894.88;;;24.78;51.91
20009;BME280;10165;42.662;23.260;2023-07-31T06:42:56;93893.94;;;24.59;52.57
20009;BME280;10165;42.662;23.260;2023-07-31T06:45:23;93897.19;;;24.80;52.53
20009;BME280;10165;42.662;23.260;2023-07-31T06:47:50;93889.47;;;25.12;52.16
20009;BME280;10165;42.662;23.260;2023-07-31T06:50:17;93896.38;;;25.04;52.11
20009;BME280;10165;42.662;23.260;2023-07-31T06:52:43;93892.84;;;25.16;52.27
20009;BME280;10165;42.662;23.260;2023-07-31T06:55:20;93888.66;;;25.25;52.04
20009;BME280;10165;42.662;23.260;2023-07-31T06:57:50;93894.56;;;25.57;51.10
20009;BME280;10165;42.662;23.260;2023-07-31T07:00:17;93893.03;;;25.78;48.77
20009;BME280;10165;42.662;23.260;2023-07-31T07:02:44;93887.03;;;25.14;50.88
20009;BME280;10165;42.662;23.260;2023-07-31T07:05:11;93876.19;;;25.58;49.20
20009;BME280;10165;42.662;23.260;2023-07-31T07:07:38;93872.00;;;25.10;50.80
20009;BME280;10165;42.662;23.260;2023-07-31T07:10:05;93865.88;;;25.06;50.69
20009;BME280;10165;42.662;23.260;2023-07-31T07:12:32;93871.72;;;25.51;49.12
20009;BME280;10165;42.662;23.260;2023-07-31T07:15:00;93873.09;;;25.00;50.56
20009;BME280;10165;42.662;23.260;2023-07-31T07:17:28;93872.25;;;25.25;49.61
20009;BME280;10165;42.662;23.260;2023-07-31T07:19:58;93888.28;;;25.01;49.80
20009;BME280;10165;42.662;23.260;2023-07-31T07:22:25;93887.69;;;24.59;50.84
20009;BME280;10165;42.662;23.260;2023-07-31T07:24:53;93882.63;;;24.95;50.71
20009;BME280;10165;42.662;23.260;2023-07-31T07:27:20;93882.09;;;24.88;49.92
20009;BME280;10165;42.662;23.260;2023-07-31T07:29:50;93890.03;;;25.07;49.00
20009;BME280;10165;42.662;23.260;2023-07-31T07:32:16;93874.91;;;25.15;49.21
20009;BME280;10165;42.662;23.260;2023-07-31T07:34:44;93879.66;;;25.02;49.05
20009;BME280;10165;42.662;23.260;2023-07-31T07:37:11;93871.84;;;25.69;48.01
20009;BME280;10165;42.662;23.260;2023-07-31T07:39:38;93888.13;;;25.73;48.40
20009;BME280;10165;42.662;23.260;2023-07-31T07:42:05;93887.34;;;25.51;48.63
20009;BME280;10165;42.662;23.260;2023-07-31T07:44:32;93887.75;;;25.06;49.39
20009;BME280;10165;42.662;23.260;2023-07-31T07:46:59;93893.53;;;24.95;49.81
20009;BME280;10165;42.662;23.260;2023-07-31T07:49:25;93881.66;;;25.23;49.55
20009;BME280;10165;42.662;23.260;2023-07-31T07:51:52;93890.09;;;25.51;49.78
20009;BME280;10165;42.662;23.260;2023-07-31T07:54:19;93897.03;;;25.08;49.60
20009;BME280;10165;42.662;23.260;2023-07-31T07:56:47;93891.91;;;25.32;48.87
20009;BME280;10165;42.662;23.260;2023-07-31T07:59:14;93898.28;;;24.95;49.43
20009;BME280;10165;42.662;23.260;2023-07-31T08:01:41;93897.56;;;25.03;49.10
20009;BME280;10165;42.662;23.260;2023-07-31T08:04:08;93895.25;;;25.49;48.72
20009;BME280;10165;42.662;23.260;2023-07-31T08:06:35;93897.50;;;24.94;48.64
20009;BME280;10165;42.662;23.260;2023-07-31T08:09:02;93894.53;;;25.01;49.46
20009;BME280;10165;42.662;23.260;2023-07-31T08:11:33;93886.41;;;25.45;48.47
20009;BME280;10165;42.662;23.260;2023-07-31T08:13:59;93889.84;;;26.01;47.25
20009;BME280;10165;42.662;23.260;2023-07-31T08:16:27;93901.66;;;25.33;47.93
20009;BME280;10165;42.662;23.260;2023-07-31T08:18:54;93903.63;;;25.33;47.40
20009;BME280;10165;42.662;23.260;2023-07-31T08:21:21;93896.53;;;25.57;47.35
20009;BME280;10165;42.662;23.260;2023-07-31T08:23:48;93902.53;;;26.17;46.17
20009;BME280;10165;42.662;23.260;2023-07-31T08:26:16;93902.16;;;26.28;45.11
20009;BME280;10165;42.662;23.260;2023-07-31T08:28:43;93896.13;;;26.42;44.73
20009;BME280;10165;42.662;23.260;2023-07-31T08:31:10;93895.97;;;26.14;45.23
20009;BME280;10165;42.662;23.260;2023-07-31T08:33:38;93889.50;;;26.61;44.51
20009;BME280;10165;42.662;23.260;2023-07-31T08:36:05;93900.53;;;26.39;44.60
20009;BME280;10165;42.662;23.260;2023-07-31T08:38:32;93892.72;;;25.98;45.05
20009;BME280;10165;42.662;23.260;2023-07-31T08:40:59;93895.63;;;26.25;45.05
20009;BME280;10165;42.662;23.260;2023-07-31T08:43:27;93886.78;;;26.21;44.93
20009;BME280;10165;42.662;23.260;2023-07-31T08:45:54;93900.94;;;25.54;46.26
20009;BME280;10165;42.662;23.260;2023-07-31T08:48:22;93896.69;;;25.41;46.83
20009;BME280;10165;42.662;23.260;2023-07-31T08:50:51;93890.03;;;25.85;46.01
20009;BME280;10165;42.662;23.260;2023-07-31T08:53:18;93901.78;;;25.64;45.82
20009;BME280;10165;42.662;23.260;2023-07-31T08:55:46;93894.84;;;26.03;44.16
20009;BME280;10165;42.662;23.260;2023-07-31T08:58:14;93902.06;;;26.40;43.90
20009;BME280;10165;42.662;23.260;2023-07-31T09:00:42;93887.00;;;25.83;44.65
20009;BME280;10165;42.662;23.260;2023-07-31T09:03:17;93883.16;;;26.02;43.55
20009;BME280;10165;42.662;23.260;2023-07-31T09:05:46;93895.97;;;26.36;43.27
20009;BME280;10165;42.662;23.260;2023-07-31T09:08:16;93893.63;;;26.26;44.44
20009;BME280;10165;42.662;23.260;2023-07-31T09:10:45;93891.25;;;26.15;44.51
20009;BME280;10165;42.662;23.260;2023-07-31T09:13:14;93891.47;;;26.21;44.13
20009;BME280;10165;42.662;23.260;2023-07-31T09:15:43;93884.63;;;26.56;43.64
20009;BME280;10165;42.662;23.260;2023-07-31T09:18:11;93880.66;;;26.97;42.54
20009;BME280;10165;42.662;23.260;2023-07-31T09:20:37;93875.03;;;27.09;42.10
20009;BME280;10165;42.662;23.260;2023-07-31T09:25:33;93880.56;;;26.70;43.18
20009;BME280;10165;42.662;23.260;2023-07-31T09:28:05;93875.31;;;26.13;44.53
20009;BME280;10165;42.662;23.260;2023-07-31T09:30:45;93877.75;;;25.90;45.61
20009;BME280;10165;42.662;23.260;2023-07-31T09:33:13;93866.69;;;26.24;44.41
20009;BME280;10165;42.662;23.260;2023-07-31T09:35:40;93866.03;;;26.51;43.78
20009;BME280;10165;42.662;23.260;2023-07-31T09:38:12;93865.41;;;26.96;43.24
20009;BME280;10165;42.662;23.260;2023-07-31T09:40:58;93859.19;;;27.14;42.52
20009;BME280;10165;42.662;23.260;2023-07-31T09:43:25;93855.25;;;27.51;42.24
20009;BME280;10165;42.662;23.260;2023-07-31T09:45:55;93861.91;;;26.95;43.38
20009;BME280;10165;42.662;23.260;2023-07-31T09:48:23;93865.13;;;27.39;42.79
20009;BME280;10165;42.662;23.260;2023-07-31T09:50:53;93864.00;;;28.00;41.65
20009;BME280;10165;42.662;23.260;2023-07-31T09:53:28;93857.97;;;27.78;40.87
20009;BME280;10165;42.662;23.260;2023-07-31T09:55:58;93864.22;;;27.79;40.90
20009;BME280;10165;42.662;23.260;2023-07-31T09:58:27;93861.63;;;27.39;41.24
20009;BME280;10165;42.662;23.260;2023-07-31T10:00:57;93857.53;;;27.52;41.09
20009;BME280;10165;42.662;23.260;2023-07-31T10:03:25;93857.06;;;27.36;40.22
20009;BME280;10165;42.662;23.260;2023-07-31T10:05:55;93862.22;;;26.97;41.60
20009;BME280;10165;42.662;23.260;2023-07-31T10:08:27;93856.00;;;27.24;41.28
20009;BME280;10165;42.662;23.260;2023-07-31T10:10:59;93845.94;;;27.48;39.73
20009;BME280;10165;42.662;23.260;2023-07-31T10:13:27;93847.63;;;27.46;41.09
20009;BME280;10165;42.662;23.260;2023-07-31T10:15:58;93855.06;;;27.82;40.17
20009;BME280;10165;42.662;23.260;2023-07-31T10:18:26;93850.16;;;27.86;39.01
20009;BME280;10165;42.662;23.260;2023-07-31T10:20:54;93853.84;;;27.19;40.15
20009;BME280;10165;42.662;23.260;2023-07-31T10:23:23;93855.97;;;26.97;40.07
20009;BME280;10165;42.662;23.260;2023-07-31T10:25:53;93841.66;;;27.20;39.70
20009;BME280;10165;42.662;23.260;2023-07-31T10:28:20;93848.78;;;27.81;38.67
20009;BME280;10165;42.662;23.260;2023-07-31T10:30:47;93834.47;;;27.68;37.41
20009;BME280;10165;42.662;23.260;2023-07-31T10:33:16;93835.56;;;27.62;38.96
20009;BME280;10165;42.662;23.260;2023-07-31T10:35:44;93840.00;;;27.50;39.63
20009;BME280;10165;42.662;23.260;2023-07-31T10:38:11;93833.41;;;28.26;38.65
20009;BME280;10165;42.662;23.260;2023-07-31T10:40:39;93830.03;;;27.80;38.06
20009;BME280;10165;42.662;23.260;2023-07-31T10:43:06;93839.13;;;28.04;37.30
20009;BME280;10165;42.662;23.260;2023-07-31T10:45:42;93827.81;;;27.33;38.57
20009;BME280;10165;42.662;23.260;2023-07-31T10:48:14;93830.22;;;27.31;38.88
20009;BME280;10165;42.662;23.260;2023-07-31T10:50:51;93830.09;;;27.25;37.67
20009;BME280;10165;42.662;23.260;2023-07-31T10:53:26;93820.75;;;27.77;38.05
20009;BME280;10165;42.662;23.260;2023-07-31T10:55:53;93816.22;;;28.49;36.62
20009;BME280;10165;42.662;23.260;2023-07-31T10:58:24;93826.00;;;28.50;36.91
20009;BME280;10165;42.662;23.260;2023-07-31T11:00:57;93821.72;;;27.47;36.96
20009;BME280;10165;42.662;23.260;2023-07-31T11:03:26;93829.31;;;27.43;37.07
20009;BME280;10165;42.662;23.260;2023-07-31T11:06:03;93819.06;;;27.80;36.51
20009;BME280;10165;42.662;23.260;2023-07-31T11:08:32;93804.53;;;27.88;35.63
20009;BME280;10165;42.662;23.260;2023-07-31T11:13:30;93816.22;;;28.07;35.26
20009;BME280;10165;42.662;23.260;2023-07-31T11:15:57;93812.41;;;27.53;35.52
20009;BME280;10165;42.662;23.260;2023-07-31T11:18:26;93808.88;;;27.71;34.77
20009;BME280;10165;42.662;23.260;2023-07-31T11:20:53;93806.97;;;28.37;34.65
20009;BME280;10165;42.662;23.260;2023-07-31T11:23:21;93806.34;;;28.42;35.93
20009;BME280;10165;42.662;23.260;2023-07-31T11:25:49;93796.22;;;28.81;33.95
20009;BME280;10165;42.662;23.260;2023-07-31T11:28:18;93805.03;;;28.85;34.47
20009;BME280;10165;42.662;23.260;2023-07-31T11:30:46;93801.53;;;28.52;34.91
20009;BME280;10165;42.662;23.260;2023-07-31T11:33:13;93809.69;;;28.46;35.11
20009;BME280;10165;42.662;23.260;2023-07-31T11:35:46;93812.13;;;28.12;35.69
20009;BME280;10165;42.662;23.260;2023-07-31T11:38:21;93799.47;;;28.05;35.42
20009;BME280;10165;42.662;23.260;2023-07-31T11:40:56;93807.91;;;28.34;36.04
20009;BME280;10165;42.662;23.260;2023-07-31T11:43:23;93801.06;;;28.30;37.50
20009;BME280;10165;42.662;23.260;2023-07-31T11:45:58;93808.97;;;27.86;38.02
20009;BME280;10165;42.662;23.260;2023-07-31T11:48:33;93806.16;;;28.04;37.54
20009;BME280;10165;42.662;23.260;2023-07-31T11:51:05;93804.34;;;28.01;37.27
20009;BME280;10165;42.662;23.260;2023-07-31T11:53:43;93798.28;;;28.39;35.50
20009;BME280;10165;42.662;23.260;2023-07-31T11:56:19;93794.47;;;28.36;36.29
20009;BME280;10165;42.662;23.260;2023-07-31T11:58:49;93788.81;;;28.40;35.08
20009;BME280;10165;42.662;23.260;2023-07-31T12:01:19;93795.72;;;28.59;35.68
20009;BME280;10165;42.662;23.260;2023-07-31T12:03:47;93800.06;;;28.75;35.00
20009;BME280;10165;42.662;23.260;2023-07-31T12:06:14;93790.13;;;29.39;35.50
20009;BME280;10165;42.662;23.260;2023-07-31T12:08:41;93793.91;;;28.80;34.39
20009;BME280;10165;42.662;23.260;2023-07-31T12:11:09;93781.47;;;28.37;35.04
20009;BME280;10165;42.662;23.260;2023-07-31T12:13:36;93770.75;;;28.95;36.16
20009;BME280;10165;42.662;23.260;2023-07-31T12:16:03;93776.25;;;28.95;34.96
20009;BME280;10165;42.662;23.260;2023-07-31T12:18:36;93768.50;;;29.09;35.73
20009;BME280;10165;42.662;23.260;2023-07-31T12:21:05;93775.47;;;29.33;35.37
20009;BME280;10165;42.662;23.260;2023-07-31T12:23:34;93775.59;;;28.53;36.34
20009;BME280;10165;42.662;23.260;2023-07-31T12:26:10;93786.94;;;28.13;37.57
20009;BME280;10165;42.662;23.260;2023-07-31T12:28:42;93782.66;;;27.70;37.18
20009;BME280;10165;42.662;23.260;2023-07-31T12:31:12;93779.94;;;27.52;37.84
20009;BME280;10165;42.662;23.260;2023-07-31T12:33:40;93783.13;;;27.60;36.87
20009;BME280;10165;42.662;23.260;2023-07-31T12:36:16;93773.56;;;27.19;37.62
20009;BME280;10165;42.662;23.260;2023-07-31T12:38:44;93783.75;;;28.06;36.64
20009;BME280;10165;42.662;23.260;2023-07-31T12:41:11;93782.25;;;28.61;35.79
20009;BME280;10165;42.662;23.260;2023-07-31T12:43:40;93781.44;;;28.46;35.54
20009;BME280;10165;42.662;23.260;2023-07-31T12:46:07;93781.56;;;28.19;35.34
20009;BME280;10165;42.662;23.260;2023-07-31T12:48:35;93777.22;;;28.36;35.59
20009;BME280;10165;42.662;23.260;2023-07-31T12:51:02;93766.97;;;28.69;35.20
20009;BME280;10165;42.662;23.260;2023-07-31T12:53:29;93768.31;;;28.74;35.23
20009;BME280;10165;42.662;23.260;2023-07-31T12:55:56;93767.97;;;28.24;36.88
20009;BME280;10165;42.662;23.260;2023-07-31T12:58:23;93754.47;;;28.35;36.40
20009;BME280;10165;42.662;23.260;2023-07-31T13:00:50;93757.91;;;28.45;35.95
20009;BME280;10165;42.662;23.260;2023-07-31T13:03:16;93751.69;;;29.07;35.02